createdAt,value
2018-05-09T00:04:57.132Z,71.96
2018-05-09T00:25:29.335Z,72.64
2018-05-09T00:46:03.815Z,73.68
2018-05-09T01:06:36.807Z,75.47
2018-05-09T01:27:09.926Z,75.35
2018-05-09T01:47:43.354Z,76.87
2018-05-09T02:08:16.483Z,77.41
2018-05-09T02:28:48.885Z,76.17
2018-05-09T02:49:23.949Z,77.60
2018-05-09T03:09:57.072Z,79.52
2018-05-09T03:30:29.274Z,77.85
2018-05-09T03:51:01.474Z,77.69
2018-05-09T04:11:34.594Z,78.61
2018-05-09T04:32:06.123Z,79.61
2018-05-09T04:52:38.993Z,81.77
2018-05-09T05:13:14.265Z,80.26
2018-05-09T05:33:49.537Z,78.93
2018-05-09T05:54:24.806Z,77.27
2018-05-09T06:14:57.931Z,75.33
2018-05-09T06:35:30.131Z,73.07
2018-05-09T06:56:06.325Z,71.72
2018-05-09T07:16:42.823Z,69.48
2018-05-09T07:37:16.870Z,64.82
2018-05-09T07:57:53.983Z,62.40
2018-05-09T08:18:28.335Z,58.92
2018-05-09T08:39:02.379Z,55.41
2018-05-09T08:59:35.032Z,54.51
2018-05-09T09:20:09.856Z,54.34
2018-05-09T09:40:45.490Z,48.52
2018-05-09T10:01:19.474Z,43.89
2018-05-09T10:21:54.944Z,45.42
2018-05-09T10:42:26.292Z,43.08
2018-05-09T11:03:00.064Z,42.97
2018-05-09T11:23:36.255Z,41.52
2018-05-09T11:44:08.456Z,40.08
2018-05-09T12:04:44.962Z,37.55
2018-05-09T12:25:19.923Z,33.85
2018-05-09T12:45:55.196Z,36.94
2018-05-09T13:06:33.538Z,34.93
2018-05-09T13:27:08.814Z,36.67
2018-05-09T13:47:43.784Z,35.71
2018-05-09T14:08:16.284Z,33.13
2018-05-09T14:28:50.328Z,35.98
2018-05-09T14:49:25.593Z,33.79
2018-05-09T15:09:57.806Z,31.62
2018-05-09T15:30:32.153Z,30.63
2018-05-09T15:51:05.271Z,31.84
2018-05-09T16:11:40.763Z,33.45
2018-05-09T16:32:16.973Z,35.44
2018-05-09T16:52:49.197Z,36.50
2018-05-09T17:13:23.287Z,41.38
2018-05-09T17:33:56.415Z,45.16
2018-05-09T17:54:38.456Z,48.14
2018-05-09T18:15:12.792Z,51.43
2018-05-09T18:35:47.145Z,53.41
2018-05-09T18:56:22.418Z,56.39
2018-05-09T19:16:54.615Z,58.84
2018-05-09T19:37:27.744Z,62.10
2018-05-09T19:58:03.937Z,63.78
2018-05-09T20:18:45.548Z,65.49
2018-05-09T20:39:20.317Z,67.24
2018-05-09T20:59:55.999Z,67.87
2018-05-09T21:20:31.232Z,70.71
2018-05-09T21:41:05.206Z,72.61
2018-05-09T22:01:37.407Z,73.11
2018-05-09T22:22:09.607Z,74.97
2018-05-09T22:42:41.031Z,75.95
2018-05-09T23:03:12.794Z,76.70
2018-05-09T23:23:46.287Z,78.17
2018-05-09T23:44:18.411Z,77.77
